sensor_id;sensor_type;location;lat;lon;timestamp;temperature;humidity
69009;SHT31;56065;52.472;13.380;2022-11-02T00:00:25;11.34;89.41
69009;SHT31;56065;52.472;13.380;2022-11-02T00:02:51;11.29;89.49
69009;SHT31;56065;52.472;13.380;2022-11-02T00:05:17;11.26;89.56
69009;SHT31;56065;52.472;13.380;2022-11-02T00:07:48;11.29;89.68
69009;SHT31;56065;52.472;13.380;2022-11-02T00:10:13;11.25;89.92
69009;SHT31;56065;52.472;13.380;2022-11-02T00:12:39;11.23;89.95
69009;SHT31;56065;52.472;13.380;2022-11-02T00:15:04;11.18;90.13
69009;SHT31;56065;52.472;13.380;2022-11-02T00:17:30;11.23;89.96
69009;SHT31;56065;52.472;13.380;2022-11-02T00:19:56;11.20;89.99
69009;SHT31;56065;52.472;13.380;2022-11-02T00:22:22;11.20;90.09
69009;SHT31;56065;52.472;13.380;2022-11-02T00:24:47;11.22;89.81
69009;SHT31;56065;52.472;13.380;2022-11-02T00:27:13;11.22;89.66
69009;SHT31;56065;52.472;13.380;2022-11-02T00:29:38;11.22;89.56
69009;SHT31;56065;52.472;13.380;2022-11-02T00:32:03;11.22;89.42
69009;SHT31;56065;52.472;13.380;2022-11-02T00:34:29;11.23;89.27
69009;SHT31;56065;52.472;13.380;2022-11-02T00:36:54;11.22;89.20
69009;SHT31;56065;52.472;13.380;2022-11-02T00:39:20;11.13;89.28
69009;SHT31;56065;52.472;13.380;2022-11-02T00:41:45;11.13;89.18
69009;SHT31;56065;52.472;13.380;2022-11-02T00:44:10;11.18;89.01
69009;SHT31;56065;52.472;13.380;2022-11-02T00:46:36;11.15;88.91
69009;SHT31;56065;52.472;13.380;2022-11-02T00:49:01;11.12;88.78
69009;SHT31;56065;52.472;13.380;2022-11-02T00:51:26;11.12;88.77
69009;SHT31;56065;52.472;13.380;2022-11-02T00:53:52;11.12;88.65
69009;SHT31;56065;52.472;13.380;2022-11-02T00:56:17;11.11;88.53
69009;SHT31;56065;52.472;13.380;2022-11-02T00:58:42;11.09;88.49
69009;SHT31;56065;52.472;13.380;2022-11-02T01:01:08;11.01;88.47
69009;SHT31;56065;52.472;13.380;2022-11-02T01:03:34;10.99;88.61
69009;SHT31;56065;52.472;13.380;2022-11-02T01:06:10;10.92;88.68
69009;SHT31;56065;52.472;13.380;2022-11-02T01:08:36;10.98;88.53
69009;SHT31;56065;52.472;13.380;2022-11-02T01:11:31;10.92;88.50
69009;SHT31;56065;52.472;13.380;2022-11-02T01:13:56;10.86;88.62
69009;SHT31;56065;52.472;13.380;2022-11-02T01:16:22;10.85;88.67
69009;SHT31;56065;52.472;13.380;2022-11-02T01:18:53;10.88;88.40
69009;SHT31;56065;52.472;13.380;2022-11-02T01:21:19;10.82;88.33
69009;SHT31;56065;52.472;13.380;2022-11-02T01:23:45;10.81;88.43
69009;SHT31;56065;52.472;13.380;2022-11-02T01:26:10;10.69;88.42
69009;SHT31;56065;52.472;13.380;2022-11-02T01:28:36;10.75;88.54
69009;SHT31;56065;52.472;13.380;2022-11-02T01:31:02;10.76;88.36
69009;SHT31;56065;52.472;13.380;2022-11-02T01:33:27;10.74;88.30
69009;SHT31;56065;52.472;13.380;2022-11-02T01:35:53;10.68;88.21
69009;SHT31;56065;52.472;13.380;2022-11-02T01:38:19;10.74;88.00
69009;SHT31;56065;52.472;13.380;2022-11-02T01:40:44;10.68;88.04
69009;SHT31;56065;52.472;13.380;2022-11-02T01:43:23;10.63;87.81
69009;SHT31;56065;52.472;13.380;2022-11-02T01:48:56;10.53;88.00
69009;SHT31;56065;52.472;13.380;2022-11-02T01:53:59;10.53;87.88
69009;SHT31;56065;52.472;13.380;2022-11-02T01:56:29;10.48;87.78
69009;SHT31;56065;52.472;13.380;2022-11-02T01:58:58;10.45;87.79
69009;SHT31;56065;52.472;13.380;2022-11-02T02:01:25;10.37;87.93
69009;SHT31;56065;52.472;13.380;2022-11-02T02:03:52;10.40;87.72
69009;SHT31;56065;52.472;13.380;2022-11-02T02:06:18;10.36;87.65
69009;SHT31;56065;52.472;13.380;2022-11-02T02:08:48;10.30;87.79
69009;SHT31;56065;52.472;13.380;2022-11-02T02:11:28;10.29;87.77
69009;SHT31;56065;52.472;13.380;2022-11-02T02:14:14;10.25;87.67
69009;SHT31;56065;52.472;13.380;2022-11-02T02:19:57;10.14;87.75
69009;SHT31;56065;52.472;13.380;2022-11-02T02:31:52;10.04;87.73
69009;SHT31;56065;52.472;13.380;2022-11-02T02:36:49;10.03;87.76
69009;SHT31;56065;52.472;13.380;2022-11-02T02:39:27;10.07;87.57
69009;SHT31;56065;52.472;13.380;2022-11-02T02:44:22;10.04;87.57
69009;SHT31;56065;52.472;13.380;2022-11-02T02:46:52;10.02;87.49
69009;SHT31;56065;52.472;13.380;2022-11-02T02:49:24;10.02;87.37
69009;SHT31;56065;52.472;13.380;2022-11-02T02:51:52;9.92;87.55
69009;SHT31;56065;52.472;13.380;2022-11-02T02:54:23;9.79;87.57
69009;SHT31;56065;52.472;13.380;2022-11-02T02:56:53;9.94;87.39
69009;SHT31;56065;52.472;13.380;2022-11-02T02:59:32;9.85;87.30
69009;SHT31;56065;52.472;13.380;2022-11-02T03:01:59;9.90;87.39
69009;SHT31;56065;52.472;13.380;2022-11-02T03:04:24;9.89;87.35
69009;SHT31;56065;52.472;13.380;2022-11-02T03:06:55;9.86;87.37
69009;SHT31;56065;52.472;13.380;2022-11-02T03:09:41;9.82;87.40
69009;SHT31;56065;52.472;13.380;2022-11-02T03:15:06;9.81;87.23
69009;SHT31;56065;52.472;13.380;2022-11-02T03:17:31;9.83;87.37
69009;SHT31;56065;52.472;13.380;2022-11-02T03:20:07;9.71;87.28
69009;SHT31;56065;52.472;13.380;2022-11-02T03:28:05;9.68;87.28
69009;SHT31;56065;52.472;13.380;2022-11-02T03:30:41;9.71;87.28
69009;SHT31;56065;52.472;13.380;2022-11-02T03:33:15;9.63;87.30
69009;SHT31;56065;52.472;13.380;2022-11-02T03:35:58;9.69;87.35
69009;SHT31;56065;52.472;13.380;2022-11-02T03:38:35;9.65;87.25
69009;SHT31;56065;52.472;13.380;2022-11-02T03:41:04;9.63;87.04
69009;SHT31;56065;52.472;13.380;2022-11-02T03:43:33;9.55;87.12
69009;SHT31;56065;52.472;13.380;2022-11-02T03:46:02;9.56;87.13
69009;SHT31;56065;52.472;13.380;2022-11-02T03:48:31;9.55;87.07
69009;SHT31;56065;52.472;13.380;2022-11-02T03:51:02;9.62;86.93
69009;SHT31;56065;52.472;13.380;2022-11-02T03:53:52;9.68;86.86
69009;SHT31;56065;52.472;13.380;2022-11-02T03:56:25;9.56;86.71
69009;SHT31;56065;52.472;13.380;2022-11-02T03:58:52;9.48;86.97
69009;SHT31;56065;52.472;13.380;2022-11-02T04:01:18;9.46;86.96
69009;SHT31;56065;52.472;13.380;2022-11-02T04:03:45;9.52;86.91
69009;SHT31;56065;52.472;13.380;2022-11-02T04:06:11;9.53;86.89
69009;SHT31;56065;52.472;13.380;2022-11-02T04:08:43;9.53;86.74
69009;SHT31;56065;52.472;13.380;2022-11-02T04:11:10;9.49;86.68
69009;SHT31;56065;52.472;13.380;2022-11-02T04:13:54;9.41;86.70
69009;SHT31;56065;52.472;13.380;2022-11-02T04:16:38;9.44;86.82
69009;SHT31;56065;52.472;13.380;2022-11-02T04:19:04;9.34;87.13
69009;SHT31;56065;52.472;13.380;2022-11-02T04:21:48;9.28;87.13
69009;SHT31;56065;52.472;13.380;2022-11-02T04:24:33;9.31;87.03
69009;SHT31;56065;52.472;13.380;2022-11-02T04:27:16;9.30;87.07
69009;SHT31;56065;52.472;13.380;2022-11-02T04:29:42;9.28;87.05
69009;SHT31;56065;52.472;13.380;2022-11-02T04:32:07;9.25;87.03
69009;SHT31;56065;52.472;13.380;2022-11-02T04:34:32;9.24;87.08
69009;SHT31;56065;52.472;13.380;2022-11-02T04:36:58;9.24;87.11
69009;SHT31;56065;52.472;13.380;2022-11-02T04:39:23;9.25;86.96
69009;SHT31;56065;52.472;13.380;2022-11-02T04:41:49;9.27;86.90
69009;SHT31;56065;52.472;13.380;2022-11-02T04:44:14;9.24;86.86
69009;SHT31;56065;52.472;13.380;2022-11-02T04:46:42;9.25;86.91
69009;SHT31;56065;52.472;13.380;2022-11-02T04:49:08;9.20;86.84
69009;SHT31;56065;52.472;13.380;2022-11-02T04:51:34;9.28;86.72
69009;SHT31;56065;52.472;13.380;2022-11-02T04:54:00;9.24;86.65
69009;SHT31;56065;52.472;13.380;2022-11-02T04:56:26;9.18;86.67
69009;SHT31;56065;52.472;13.380;2022-11-02T04:58:54;9.22;86.75
69009;SHT31;56065;52.472;13.380;2022-11-02T05:01:21;9.28;86.69
69009;SHT31;56065;52.472;13.380;2022-11-02T05:03:47;9.13;86.80
69009;SHT31;56065;52.472;13.380;2022-11-02T05:06:14;9.17;86.72
69009;SHT31;56065;52.472;13.380;2022-11-02T05:08:39;9.22;86.60
69009;SHT31;56065;52.472;13.380;2022-11-02T05:11:05;9.18;86.62
69009;SHT31;56065;52.472;13.380;2022-11-02T05:13:30;9.21;86.65
69009;SHT31;56065;52.472;13.380;2022-11-02T05:15:56;9.21;86.68
69009;SHT31;56065;52.472;13.380;2022-11-02T05:18:22;9.28;86.60
69009;SHT31;56065;52.472;13.380;2022-11-02T05:20:49;9.21;86.49
69009;SHT31;56065;52.472;13.380;2022-11-02T05:23:15;9.20;86.60
69009;SHT31;56065;52.472;13.380;2022-11-02T05:25:41;9.27;86.55
69009;SHT31;56065;52.472;13.380;2022-11-02T05:28:06;9.25;86.38
69009;SHT31;56065;52.472;13.380;2022-11-02T05:30:31;9.28;86.40
69009;SHT31;56065;52.472;13.380;2022-11-02T05:32:57;9.30;86.37
69009;SHT31;56065;52.472;13.380;2022-11-02T05:35:22;9.20;86.35
69009;SHT31;56065;52.472;13.380;2022-11-02T05:37:48;9.08;86.55
69009;SHT31;56065;52.472;13.380;2022-11-02T05:40:13;9.15;86.58
69009;SHT31;56065;52.472;13.380;2022-11-02T05:42:39;9.14;86.63
69009;SHT31;56065;52.472;13.380;2022-11-02T05:45:04;9.10;86.72
69009;SHT31;56065;52.472;13.380;2022-11-02T05:47:30;9.14;86.57
69009;SHT31;56065;52.472;13.380;2022-11-02T05:49:55;9.15;86.65
69009;SHT31;56065;52.472;13.380;2022-11-02T05:52:21;9.11;86.51
69009;SHT31;56065;52.472;13.380;2022-11-02T05:54:47;9.11;86.55
69009;SHT31;56065;52.472;13.380;2022-11-02T05:57:12;9.14;87.60
69009;SHT31;56065;52.472;13.380;2022-11-02T05:59:37;9.15;86.65
69009;SHT31;56065;52.472;13.380;2022-11-02T06:02:03;9.22;86.94
69009;SHT31;56065;52.472;13.380;2022-11-02T06:04:28;9.25;86.73
69009;SHT31;56065;52.472;13.380;2022-11-02T06:06:53;9.24;86.59
69009;SHT31;56065;52.472;13.380;2022-11-02T06:09:19;9.28;86.75
69009;SHT31;56065;52.472;13.380;2022-11-02T06:11:45;9.32;86.98
69009;SHT31;56065;52.472;13.380;2022-11-02T06:14:10;9.36;86.32
69009;SHT31;56065;52.472;13.380;2022-11-02T06:16:35;9.30;86.20
69009;SHT31;56065;52.472;13.380;2022-11-02T06:19:01;9.35;86.26
69009;SHT31;56065;52.472;13.380;2022-11-02T06:21:26;9.35;85.94
69009;SHT31;56065;52.472;13.380;2022-11-02T06:23:52;9.49;85.92
69009;SHT31;56065;52.472;13.380;2022-11-02T06:26:17;9.58;85.65
69009;SHT31;56065;52.472;13.380;2022-11-02T06:28:42;9.61;85.69
69009;SHT31;56065;52.472;13.380;2022-11-02T06:31:08;9.56;85.59
69009;SHT31;56065;52.472;13.380;2022-11-02T06:33:33;9.66;85.38
69009;SHT31;56065;52.472;13.380;2022-11-02T06:35:59;9.76;85.16
69009;SHT31;56065;52.472;13.380;2022-11-02T06:38:24;9.81;84.87
69009;SHT31;56065;52.472;13.380;2022-11-02T06:40:57;9.76;84.93
69009;SHT31;56065;52.472;13.380;2022-11-02T06:43:23;9.89;84.97
69009;SHT31;56065;52.472;13.380;2022-11-02T06:45:49;9.83;84.68
69009;SHT31;56065;52.472;13.380;2022-11-02T06:48:15;10.03;84.35
69009;SHT31;56065;52.472;13.380;2022-11-02T06:50:40;10.23;84.13
69009;SHT31;56065;52.472;13.380;2022-11-02T06:53:06;10.23;83.70
69009;SHT31;56065;52.472;13.380;2022-11-02T06:55:31;10.23;83.72
69009;SHT31;56065;52.472;13.380;2022-11-02T06:57:56;10.29;83.75
69009;SHT31;56065;52.472;13.380;2022-11-02T07:00:22;10.34;83.58
69009;SHT31;56065;52.472;13.380;2022-11-02T07:03:04;10.31;83.55
69009;SHT31;56065;52.472;13.380;2022-11-02T07:05:31;10.41;83.39
69009;SHT31;56065;52.472;13.380;2022-11-02T07:07:56;10.63;83.25
69009;SHT31;56065;52.472;13.380;2022-11-02T07:10:22;11.26;82.94
69009;SHT31;56065;52.472;13.380;2022-11-02T07:12:52;11.53;81.13
69009;SHT31;56065;52.472;13.380;2022-11-02T07:15:19;11.42;81.05
69009;SHT31;56065;52.472;13.380;2022-11-02T07:17:44;11.26;81.06
69009;SHT31;56065;52.472;13.380;2022-11-02T07:20:09;11.15;81.47
69009;SHT31;56065;52.472;13.380;2022-11-02T07:22:35;11.02;81.91
69009;SHT31;56065;52.472;13.380;2022-11-02T07:25:01;11.18;81.98
69009;SHT31;56065;52.472;13.380;2022-11-02T07:27:26;11.40;81.66
69009;SHT31;56065;52.472;13.380;2022-11-02T07:29:52;11.64;81.27
69009;SHT31;56065;52.472;13.380;2022-11-02T07:32:17;11.81;80.51
69009;SHT31;56065;52.472;13.380;2022-11-02T07:34:42;11.98;80.39
69009;SHT31;56065;52.472;13.380;2022-11-02T07:37:08;12.87;79.12
69009;SHT31;56065;52.472;13.380;2022-11-02T07:39:33;13.93;75.94
69009;SHT31;56065;52.472;13.380;2022-11-02T07:41:58;15.02;72.87
69009;SHT31;56065;52.472;13.380;2022-11-02T07:44:24;15.69;70.44
69009;SHT31;56065;52.472;13.380;2022-11-02T07:46:49;16.62;68.27
69009;SHT31;56065;52.472;13.380;2022-11-02T07:49:14;17.09;67.45
69009;SHT31;56065;52.472;13.380;2022-11-02T07:51:40;18.19;65.22
69009;SHT31;56065;52.472;13.380;2022-11-02T07:54:05;19.08;61.69
69009;SHT31;56065;52.472;13.380;2022-11-02T07:56:31;19.11;60.34
69009;SHT31;56065;52.472;13.380;2022-11-02T07:58:56;19.82;59.84
69009;SHT31;56065;52.472;13.380;2022-11-02T08:01:21;20.95;57.63
69009;SHT31;56065;52.472;13.380;2022-11-02T08:03:47;20.89;55.94
69009;SHT31;56065;52.472;13.380;2022-11-02T08:06:12;20.45;57.17
69009;SHT31;56065;52.472;13.380;2022-11-02T08:08:38;19.76;57.74
69009;SHT31;56065;52.472;13.380;2022-11-02T08:11:05;19.05;59.49
69009;SHT31;56065;52.472;13.380;2022-11-02T08:13:31;18.16;60.88
69009;SHT31;56065;52.472;13.380;2022-11-02T08:15:56;17.30;63.20
69009;SHT31;56065;52.472;13.380;2022-11-02T08:18:24;16.82;64.63
69009;SHT31;56065;52.472;13.380;2022-11-02T08:20:50;16.40;65.66
69009;SHT31;56065;52.472;13.380;2022-11-02T08:23:17;16.64;65.91
69009;SHT31;56065;52.472;13.380;2022-11-02T08:25:44;16.79;65.54
69009;SHT31;56065;52.472;13.380;2022-11-02T08:28:30;16.64;66.29
69009;SHT31;56065;52.472;13.380;2022-11-02T08:30:59;16.35;67.06
69009;SHT31;56065;52.472;13.380;2022-11-02T08:33:25;16.59;66.84
69009;SHT31;56065;52.472;13.380;2022-11-02T08:35:50;16.25;66.68
69009;SHT31;56065;52.472;13.380;2022-11-02T08:38:17;16.18;67.18
69009;SHT31;56065;52.472;13.380;2022-11-02T08:40:43;15.57;68.80
69009;SHT31;56065;52.472;13.380;2022-11-02T08:43:10;15.43;69.12
69009;SHT31;56065;52.472;13.380;2022-11-02T08:45:37;15.09;70.15
69009;SHT31;56065;52.472;13.380;2022-11-02T08:48:03;15.19;70.37
69009;SHT31;56065;52.472;13.380;2022-11-02T08:50:29;15.15;70.74
69009;SHT31;56065;52.472;13.380;2022-11-02T08:52:54;15.06;70.55
69009;SHT31;56065;52.472;13.380;2022-11-02T08:55:20;14.77;71.13
69009;SHT31;56065;52.472;13.380;2022-11-02T08:57:56;14.88;71.96
69009;SHT31;56065;52.472;13.380;2022-11-02T09:00:26;15.09;71.94
69009;SHT31;56065;52.472;13.380;2022-11-02T09:05:23;14.88;71.53
69009;SHT31;56065;52.472;13.380;2022-11-02T09:07:56;16.10;70.01
69009;SHT31;56065;52.472;13.380;2022-11-02T09:10:22;18.04;65.97
69009;SHT31;56065;52.472;13.380;2022-11-02T09:12:47;19.31;63.02
69009;SHT31;56065;52.472;13.380;2022-11-02T09:15:12;19.77;60.92
69009;SHT31;56065;52.472;13.380;2022-11-02T09:17:38;19.49;60.40
69009;SHT31;56065;52.472;13.380;2022-11-02T09:20:04;20.21;57.77
69009;SHT31;56065;52.472;13.380;2022-11-02T09:22:29;21.68;56.21
69009;SHT31;56065;52.472;13.380;2022-11-02T09:24:54;22.59;55.30
69009;SHT31;56065;52.472;13.380;2022-11-02T09:27:20;22.70;54.56
69009;SHT31;56065;52.472;13.380;2022-11-02T09:29:45;23.23;52.65
69009;SHT31;56065;52.472;13.380;2022-11-02T09:32:10;23.57;51.92
69009;SHT31;56065;52.472;13.380;2022-11-02T09:34:36;23.64;50.25
69009;SHT31;56065;52.472;13.380;2022-11-02T09:37:01;23.16;51.15
69009;SHT31;56065;52.472;13.380;2022-11-02T09:39:26;23.10;51.85
69009;SHT31;56065;52.472;13.380;2022-11-02T09:42:22;23.13;52.01
69009;SHT31;56065;52.472;13.380;2022-11-02T09:44:58;23.43;50.61
69009;SHT31;56065;52.472;13.380;2022-11-02T09:47:27;22.63;51.48
69009;SHT31;56065;52.472;13.380;2022-11-02T09:49:54;22.55;52.05
69009;SHT31;56065;52.472;13.380;2022-11-02T09:52:30;23.11;51.77
69009;SHT31;56065;52.472;13.380;2022-11-02T09:54:58;24.50;50.08
69009;SHT31;56065;52.472;13.380;2022-11-02T09:57:30;25.46;48.43
69009;SHT31;56065;52.472;13.380;2022-11-02T09:59:56;23.90;49.13
69009;SHT31;56065;52.472;13.380;2022-11-02T10:05:07;24.52;48.53
69009;SHT31;56065;52.472;13.380;2022-11-02T10:13:26;23.24;50.69
69009;SHT31;56065;52.472;13.380;2022-11-02T10:15:58;22.73;50.16
69009;SHT31;56065;52.472;13.380;2022-11-02T10:18:27;22.18;51.66
69009;SHT31;56065;52.472;13.380;2022-11-02T10:20:58;21.90;52.45
69009;SHT31;56065;52.472;13.380;2022-11-02T10:23:29;22.76;51.42
69009;SHT31;56065;52.472;13.380;2022-11-02T10:25:54;23.51;49.98
69009;SHT31;56065;52.472;13.380;2022-11-02T10:28:24;24.10;48.83
69009;SHT31;56065;52.472;13.380;2022-11-02T10:30:51;24.35;46.96
69009;SHT31;56065;52.472;13.380;2022-11-02T10:33:21;24.37;47.04
69009;SHT31;56065;52.472;13.380;2022-11-02T10:35:59;23.35;48.48
69009;SHT31;56065;52.472;13.380;2022-11-02T10:47:17;22.86;49.82
69009;SHT31;56065;52.472;13.380;2022-11-02T10:52:40;21.56;52.26
69009;SHT31;56065;52.472;13.380;2022-11-02T10:55:09;21.35;52.45
69009;SHT31;56065;52.472;13.380;2022-11-02T10:57:38;22.08;51.51
69009;SHT31;56065;52.472;13.380;2022-11-02T11:03:03;22.41;50.08
69009;SHT31;56065;52.472;13.380;2022-11-02T11:05:28;22.51;50.29
69009;SHT31;56065;52.472;13.380;2022-11-02T11:07:54;22.69;48.89
69009;SHT31;56065;52.472;13.380;2022-11-02T11:10:22;22.34;49.70
69009;SHT31;56065;52.472;13.380;2022-11-02T11:12:48;22.59;49.60
69009;SHT31;56065;52.472;13.380;2022-11-02T11:15:25;22.80;49.08
69009;SHT31;56065;52.472;13.380;2022-11-02T11:17:54;21.37;51.22
69009;SHT31;56065;52.472;13.380;2022-11-02T11:20:36;21.45;51.95
69009;SHT31;56065;52.472;13.380;2022-11-02T11:23:23;20.59;52.44
69009;SHT31;56065;52.472;13.380;2022-11-02T11:26:03;20.36;52.95
69009;SHT31;56065;52.472;13.380;2022-11-02T11:28:37;19.66;53.98
69009;SHT31;56065;52.472;13.380;2022-11-02T11:33:53;19.41;54.88
69009;SHT31;56065;52.472;13.380;2022-11-02T11:36:31;18.68;56.16
69009;SHT31;56065;52.472;13.380;2022-11-02T11:39:27;18.60;57.50
69009;SHT31;56065;52.472;13.380;2022-11-02T11:41:54;18.39;57.87
69009;SHT31;56065;52.472;13.380;2022-11-02T11:44:20;18.57;57.57
69009;SHT31;56065;52.472;13.380;2022-11-02T11:46:48;18.57;57.54
69009;SHT31;56065;52.472;13.380;2022-11-02T11:49:45;17.98;58.38
69009;SHT31;56065;52.472;13.380;2022-11-02T11:52:17;18.05;58.68
69009;SHT31;56065;52.472;13.380;2022-11-02T11:54:52;17.92;59.32
69009;SHT31;56065;52.472;13.380;2022-11-02T11:57:31;17.70;59.60
69009;SHT31;56065;52.472;13.380;2022-11-02T11:59:58;17.38;60.32
69009;SHT31;56065;52.472;13.380;2022-11-02T12:02:28;17.17;60.82
69009;SHT31;56065;52.472;13.380;2022-11-02T12:04:59;17.38;60.12
69009;SHT31;56065;52.472;13.380;2022-11-02T12:10:20;17.22;61.12
69009;SHT31;56065;52.472;13.380;2022-11-02T12:13:32;17.36;60.53
69009;SHT31;56065;52.472;13.380;2022-11-02T12:35:32;19.83;53.40
69009;SHT31;56065;52.472;13.380;2022-11-02T12:38:26;19.03;53.91
69009;SHT31;56065;52.472;13.380;2022-11-02T12:41:36;18.94;53.32
69009;SHT31;56065;52.472;13.380;2022-11-02T12:49:59;17.98;54.19
69009;SHT31;56065;52.472;13.380;2022-11-02T12:55:12;17.91;53.05
69009;SHT31;56065;52.472;13.380;2022-11-02T12:57:38;17.88;53.00
69009;SHT31;56065;52.472;13.380;2022-11-02T13:00:10;18.04;52.73
69009;SHT31;56065;52.472;13.380;2022-11-02T13:03:00;17.70;53.18
69009;SHT31;56065;52.472;13.380;2022-11-02T13:05:42;17.68;52.83
69009;SHT31;56065;52.472;13.380;2022-11-02T13:08:21;17.78;52.66
69009;SHT31;56065;52.472;13.380;2022-11-02T13:10:54;17.91;52.33
69009;SHT31;56065;52.472;13.380;2022-11-02T13:13:33;17.47;52.86
69009;SHT31;56065;52.472;13.380;2022-11-02T13:16:00;17.63;53.29
69009;SHT31;56065;52.472;13.380;2022-11-02T13:18:29;17.43;52.71
69009;SHT31;56065;52.472;13.380;2022-11-02T13:20:57;17.70;53.42
69009;SHT31;56065;52.472;13.380;2022-11-02T13:23:52;17.78;53.15
69009;SHT31;56065;52.472;13.380;2022-11-02T13:26:34;17.47;53.47
69009;SHT31;56065;52.472;13.380;2022-11-02T13:31:40;17.41;53.81
69009;SHT31;56065;52.472;13.380;2022-11-02T13:34:11;17.55;54.36
69009;SHT31;56065;52.472;13.380;2022-11-02T13:36:39;17.73;53.98
69009;SHT31;56065;52.472;13.380;2022-11-02T13:49:50;17.50;53.91
69009;SHT31;56065;52.472;13.380;2022-11-02T13:52:24;17.41;54.50
69009;SHT31;56065;52.472;13.380;2022-11-02T13:55:00;17.60;54.44
69009;SHT31;56065;52.472;13.380;2022-11-02T13:57:47;17.30;53.78
69009;SHT31;56065;52.472;13.380;2022-11-02T14:02:53;16.76;55.39
69009;SHT31;56065;52.472;13.380;2022-11-02T14:05:40;16.66;55.36
69009;SHT31;56065;52.472;13.380;2022-11-02T14:08:09;16.65;55.75
69009;SHT31;56065;52.472;13.380;2022-11-02T14:10:37;16.86;56.29
69009;SHT31;56065;52.472;13.380;2022-11-02T14:13:03;17.15;55.60
69009;SHT31;56065;52.472;13.380;2022-11-02T14:23:29;17.07;55.11
69009;SHT31;56065;52.472;13.380;2022-11-02T14:25:58;16.93;55.08
69009;SHT31;56065;52.472;13.380;2022-11-02T14:34:12;17.30;55.30
69009;SHT31;56065;52.472;13.380;2022-11-02T14:37:13;17.38;55.04
69009;SHT31;56065;52.472;13.380;2022-11-02T14:39:49;17.64;55.61
69009;SHT31;56065;52.472;13.380;2022-11-02T14:47:35;17.44;55.05
69009;SHT31;56065;52.472;13.380;2022-11-02T14:50:28;17.19;55.94
69009;SHT31;56065;52.472;13.380;2022-11-02T14:53:24;17.05;56.13
69009;SHT31;56065;52.472;13.380;2022-11-02T14:55:54;16.72;56.85
69009;SHT31;56065;52.472;13.380;2022-11-02T14:58:23;16.44;57.29
69009;SHT31;56065;52.472;13.380;2022-11-02T15:03:37;16.27;57.74
69009;SHT31;56065;52.472;13.380;2022-11-02T15:06:20;16.15;57.67
69009;SHT31;56065;52.472;13.380;2022-11-02T15:11:41;15.77;58.36
69009;SHT31;56065;52.472;13.380;2022-11-02T15:16:57;15.60;58.36
69009;SHT31;56065;52.472;13.380;2022-11-02T15:19:44;15.49;58.74
69009;SHT31;56065;52.472;13.380;2022-11-02T15:25:58;15.39;58.69
69009;SHT31;56065;52.472;13.380;2022-11-02T15:28:26;15.25;60.46
69009;SHT31;56065;52.472;13.380;2022-11-02T15:30:55;15.31;61.27
69009;SHT31;56065;52.472;13.380;2022-11-02T15:33:38;15.34;62.75
69009;SHT31;56065;52.472;13.380;2022-11-02T15:36:06;15.36;60.77
69009;SHT31;56065;52.472;13.380;2022-11-02T15:38:31;15.40;61.97
69009;SHT31;56065;52.472;13.380;2022-11-02T15:43:49;15.50;61.04
69009;SHT31;56065;52.472;13.380;2022-11-02T15:46:49;15.38;58.98
69009;SHT31;56065;52.472;13.380;2022-11-02T15:57:19;14.81;59.24
69009;SHT31;56065;52.472;13.380;2022-11-02T16:02:44;14.64;59.82
69009;SHT31;56065;52.472;13.380;2022-11-02T16:05:21;14.54;61.11
69009;SHT31;56065;52.472;13.380;2022-11-02T16:07:49;14.50;61.71
69009;SHT31;56065;52.472;13.380;2022-11-02T16:10:29;14.44;60.24
69009;SHT31;56065;52.472;13.380;2022-11-02T16:13:01;14.32;60.82
69009;SHT31;56065;52.472;13.380;2022-11-02T16:15:35;14.32;61.02
69009;SHT31;56065;52.472;13.380;2022-11-02T16:18:01;14.36;61.86
69009;SHT31;56065;52.472;13.380;2022-11-02T16:20:27;14.33;60.67
69009;SHT31;56065;52.472;13.380;2022-11-02T16:23:02;14.24;60.94
69009;SHT31;56065;52.472;13.380;2022-11-02T16:25:34;14.22;60.98
69009;SHT31;56065;52.472;13.380;2022-11-02T16:28:11;14.12;62.08
69009;SHT31;56065;52.472;13.380;2022-11-02T16:30:38;14.03;62.09
69009;SHT31;56065;52.472;13.380;2022-11-02T16:33:04;13.99;62.32
69009;SHT31;56065;52.472;13.380;2022-11-02T16:35:30;13.98;61.67
69009;SHT31;56065;52.472;13.380;2022-11-02T16:37:55;13.86;61.79
69009;SHT31;56065;52.472;13.380;2022-11-02T16:40:21;13.76;61.65
69009;SHT31;56065;52.472;13.380;2022-11-02T16:42:49;13.69;61.74
69009;SHT31;56065;52.472;13.380;2022-11-02T16:45:36;13.66;61.77
69009;SHT31;56065;52.472;13.380;2022-11-02T16:48:15;13.62;62.07
69009;SHT31;56065;52.472;13.380;2022-11-02T16:53:28;13.47;62.49
69009;SHT31;56065;52.472;13.380;2022-11-02T16:55:55;13.44;62.74
69009;SHT31;56065;52.472;13.380;2022-11-02T16:58:25;13.41;62.57
69009;SHT31;56065;52.472;13.380;2022-11-02T17:00:59;13.40;62.54
69009;SHT31;56065;52.472;13.380;2022-11-02T17:03:31;13.31;62.49
69009;SHT31;56065;52.472;13.380;2022-11-02T17:05:58;13.20;63.27
69009;SHT31;56065;52.472;13.380;2022-11-02T17:08:30;13.14;63.05
69009;SHT31;56065;52.472;13.380;2022-11-02T17:10:57;13.07;63.42
69009;SHT31;56065;52.472;13.380;2022-11-02T17:13:24;13.06;63.51
69009;SHT31;56065;52.472;13.380;2022-11-02T17:15:51;13.00;63.43
69009;SHT31;56065;52.472;13.380;2022-11-02T17:20:47;12.99;63.44
69009;SHT31;56065;52.472;13.380;2022-11-02T17:23:33;12.92;63.59
69009;SHT31;56065;52.472;13.380;2022-11-02T17:28:48;12.86;63.85
69009;SHT31;56065;52.472;13.380;2022-11-02T17:31:18;12.82;63.87
69009;SHT31;56065;52.472;13.380;2022-11-02T17:33:45;12.79;63.97
69009;SHT31;56065;52.472;13.380;2022-11-02T17:36:11;12.73;64.33
69009;SHT31;56065;52.472;13.380;2022-11-02T17:38:37;12.72;64.25
69009;SHT31;56065;52.472;13.380;2022-11-02T17:41:03;12.66;64.10
69009;SHT31;56065;52.472;13.380;2022-11-02T17:43:49;12.57;64.43
69009;SHT31;56065;52.472;13.380;2022-11-02T17:46:14;12.52;64.55
69009;SHT31;56065;52.472;13.380;2022-11-02T17:48:40;12.46;65.29
69009;SHT31;56065;52.472;13.380;2022-11-02T17:51:08;12.34;65.38
69009;SHT31;56065;52.472;13.380;2022-11-02T17:53:35;12.29;65.76
69009;SHT31;56065;52.472;13.380;2022-11-02T17:56:00;12.26;65.48
69009;SHT31;56065;52.472;13.380;2022-11-02T17:58:25;12.24;65.52
69009;SHT31;56065;52.472;13.380;2022-11-02T18:00:51;12.18;65.64
69009;SHT31;56065;52.472;13.380;2022-11-02T18:03:18;12.11;65.83
69009;SHT31;56065;52.472;13.380;2022-11-02T18:05:46;12.04;66.41
69009;SHT31;56065;52.472;13.380;2022-11-02T18:08:11;12.04;66.63
69009;SHT31;56065;52.472;13.380;2022-11-02T18:10:39;12.01;66.45
69009;SHT31;56065;52.472;13.380;2022-11-02T18:13:06;12.01;66.65
69009;SHT31;56065;52.472;13.380;2022-11-02T18:15:32;11.98;66.85